createdAt,value
2019-05-20T00:02:23.543Z,100439.37
2019-05-20T00:04:45.711Z,100441.02
2019-05-20T00:07:14.446Z,100437.05
2019-05-20T00:09:43.166Z,100435.81
2019-05-20T00:12:11.680Z,100428.13
2019-05-20T00:14:40.149Z,100427.63
2019-05-20T00:17:08.838Z,100429.17
2019-05-20T00:19:37.291Z,100439.30
2019-05-20T00:22:05.719Z,100426.78
2019-05-20T00:24:34.508Z,100417.08
2019-05-20T00:27:06.166Z,100424.60
2019-05-20T00:29:34.614Z,100425.74
2019-05-20T00:32:03.460Z,100419.47
2019-05-20T00:34:35.185Z,100424.53
2019-05-20T00:37:02.432Z,100413.80
2019-05-20T00:39:30.997Z,100421.84
2019-05-20T00:41:59.476Z,100424.97
2019-05-20T00:44:27.900Z,100419.43
2019-05-20T00:46:56.760Z,100419.27
2019-05-20T00:49:25.402Z,100410.00
2019-05-20T00:51:53.921Z,100412.08
2019-05-20T00:54:22.677Z,100410.86
2019-05-20T00:56:52.886Z,100400.26
2019-05-20T00:59:21.509Z,100402.80
2019-05-20T01:01:53.257Z,100397.84
2019-05-20T01:04:21.775Z,100396.09
2019-05-20T01:06:50.211Z,100405.11
2019-05-20T01:09:18.694Z,100403.59
2019-05-20T01:11:48.429Z,100413.71
2019-05-20T01:14:16.894Z,100416.52
2019-05-20T01:16:45.405Z,100424.27
2019-05-20T01:19:13.902Z,100427.17
2019-05-20T01:21:42.359Z,100429.33
2019-05-20T01:24:10.855Z,100425.30
2019-05-20T01:26:39.295Z,100426.56
2019-05-20T01:29:07.977Z,100419.79
2019-05-20T01:31:36.725Z,100421.56
2019-05-20T01:34:07.934Z,100417.85
2019-05-20T01:36:36.507Z,100419.42
2019-05-20T01:39:06.893Z,100409.63
2019-05-20T01:41:35.323Z,100407.98
2019-05-20T01:44:04.033Z,100407.48
2019-05-20T01:46:32.494Z,100415.52
2019-05-20T01:49:01.192Z,100418.20
2019-05-20T01:51:29.630Z,100422.45
2019-05-20T01:53:58.568Z,100422.96
2019-05-20T01:56:27.011Z,100425.22
2019-05-20T01:58:55.639Z,100419.85
2019-05-20T02:01:24.117Z,100423.75
2019-05-20T02:03:52.565Z,100428.38
2019-05-20T02:06:21.081Z,100431.38
2019-05-20T02:08:49.567Z,100440.10
2019-05-20T02:11:18.121Z,100442.86
2019-05-20T02:14:00.257Z,100439.91
2019-05-20T02:16:29.374Z,100447.03
2019-05-20T02:18:58.027Z,100450.75
2019-05-20T02:21:28.013Z,100446.32
2019-05-20T02:23:56.507Z,100445.20
2019-05-20T02:26:25.540Z,100448.52
2019-05-20T02:28:54.132Z,100450.50
2019-05-20T02:31:22.668Z,100452.27
2019-05-20T02:33:52.948Z,100453.30
2019-05-20T02:36:21.504Z,100452.69
2019-05-20T02:38:51.985Z,100445.98
2019-05-20T02:41:20.429Z,100439.29
2019-05-20T02:43:49.215Z,100432.59
2019-05-20T02:46:19.422Z,100430.94
2019-05-20T02:48:50.644Z,100418.56
2019-05-20T02:51:23.506Z,100423.02
2019-05-20T02:53:51.933Z,100426.34
2019-05-20T02:56:20.388Z,100425.23
2019-05-20T02:58:49.526Z,100432.13
2019-05-20T03:01:26.785Z,100428.64
2019-05-20T03:04:10.649Z,100427.61
2019-05-20T03:06:25.627Z,100415.44
2019-05-20T03:08:54.055Z,100426.39
2019-05-20T03:11:22.517Z,100422.06
2019-05-20T03:13:50.957Z,100421.22
2019-05-20T03:16:19.519Z,100427.84
2019-05-20T03:18:48.007Z,100428.88
2019-05-20T03:21:16.431Z,100426.31
2019-05-20T03:23:45.159Z,100425.28
2019-05-20T03:26:13.866Z,100423.21
2019-05-20T03:28:42.300Z,100425.77
2019-05-20T03:31:10.818Z,100424.09
2019-05-20T03:33:39.517Z,100421.22
2019-05-20T03:36:08.401Z,100415.55
2019-05-20T03:38:36.839Z,100423.89
2019-05-20T03:41:05.455Z,100417.50
2019-05-20T03:43:33.942Z,100418.69
2019-05-20T03:46:02.412Z,100423.02
2019-05-20T03:48:31.260Z,100434.05
2019-05-20T03:50:59.698Z,100426.53
2019-05-20T03:53:28.213Z,100435.69
2019-05-20T03:55:57.151Z,100432.70
2019-05-20T03:58:27.355Z,100434.66
2019-05-20T04:00:56.129Z,100433.92
2019-05-20T04:03:26.255Z,100428.14
2019-05-20T04:05:54.654Z,100419.29
2019-05-20T04:08:23.608Z,100417.11
2019-05-20T04:10:52.238Z,100419.90
2019-05-20T04:13:21.179Z,100421.01
2019-05-20T04:15:49.643Z,100415.77
2019-05-20T04:18:18.354Z,100418.45
2019-05-20T04:20:49.599Z,100417.84
2019-05-20T04:23:18.199Z,100417.84
2019-05-20T04:25:47.458Z,100415.57
2019-05-20T04:28:15.909Z,100411.31
2019-05-20T04:30:44.401Z,100411.31
2019-05-20T04:33:12.983Z,100410.20
2019-05-20T04:35:43.268Z,100417.11
2019-05-20T04:38:11.781Z,100415.89
2019-05-20T04:40:40.996Z,100416.61
2019-05-20T04:43:12.306Z,100419.30
2019-05-20T04:45:41.034Z,100424.23
2019-05-20T04:48:13.414Z,100418.67
2019-05-20T04:50:39.904Z,100415.46
2019-05-20T04:53:08.610Z,100417.11
2019-05-20T04:55:37.319Z,100421.73
2019-05-20T04:58:05.750Z,100418.33
2019-05-20T05:00:52.239Z,100416.56
2019-05-20T05:03:21.214Z,100414.06
2019-05-20T05:05:50.959Z,100421.68
2019-05-20T05:08:21.152Z,100417.96
2019-05-20T05:10:50.398Z,100418.95
2019-05-20T05:13:19.615Z,100418.70
2019-05-20T05:15:48.404Z,100425.66
2019-05-20T05:18:17.113Z,100424.80
2019-05-20T05:20:45.675Z,100419.61
2019-05-20T05:23:14.487Z,100419.81
2019-05-20T05:25:42.920Z,100427.40
2019-05-20T05:28:11.519Z,100428.31
2019-05-20T05:30:40.984Z,100437.27
2019-05-20T05:33:09.559Z,100434.69
2019-05-20T05:35:52.198Z,100434.45
2019-05-20T05:38:08.874Z,100434.16
2019-05-20T05:40:37.267Z,100428.78
2019-05-20T05:43:05.709Z,100428.35
2019-05-20T05:45:34.493Z,100426.45
2019-05-20T05:48:03.135Z,100435.27
2019-05-20T05:50:31.647Z,100445.11
2019-05-20T05:53:00.200Z,100447.66
2019-05-20T05:55:28.719Z,100450.45
2019-05-20T05:57:57.151Z,100444.84
2019-05-20T06:00:26.116Z,100455.75
2019-05-20T06:02:54.673Z,100455.08
2019-05-20T06:05:23.121Z,100451.75
2019-05-20T06:07:51.740Z,100451.75
2019-05-20T06:10:20.786Z,100457.13
2019-05-20T06:12:49.223Z,100456.69
2019-05-20T06:15:18.526Z,100450.27
2019-05-20T06:17:47.052Z,100449.23
2019-05-20T06:20:16.616Z,100447.89
2019-05-20T06:22:48.626Z,100453.09
2019-05-20T06:25:19.018Z,100448.05
2019-05-20T06:27:47.468Z,100447.16
2019-05-20T06:30:16.672Z,100442.99
2019-05-20T06:32:45.167Z,100448.83
2019-05-20T06:35:15.470Z,100448.36
2019-05-20T06:37:51.305Z,100456.77
2019-05-20T06:40:20.093Z,100457.08
2019-05-20T06:42:48.594Z,100455.89
2019-05-20T06:45:17.463Z,100467.51
2019-05-20T06:47:45.916Z,100469.16
2019-05-20T06:50:14.577Z,100467.30
2019-05-20T06:52:43.061Z,100457.73
2019-05-20T06:55:12.134Z,100456.36
2019-05-20T06:57:40.739Z,100459.44
2019-05-20T07:00:10.219Z,100456.45
2019-05-20T07:02:38.654Z,100456.45
2019-05-20T07:05:08.203Z,100461.08
2019-05-20T07:07:36.694Z,100454.95
2019-05-20T07:10:07.474Z,100463.33
2019-05-20T07:12:41.264Z,100468.25
2019-05-20T07:15:07.983Z,100465.27
2019-05-20T07:17:36.431Z,100477.67
2019-05-20T07:20:06.666Z,100474.68
2019-05-20T07:22:53.870Z,100475.28
2019-05-20T07:25:06.816Z,100465.68
2019-05-20T07:27:35.318Z,100464.72
2019-05-20T07:30:08.021Z,100460.37
2019-05-20T07:32:50.568Z,100458.53
2019-05-20T07:35:29.638Z,100460.20
2019-05-20T07:37:49.825Z,100471.60
2019-05-20T07:40:30.186Z,100467.56
2019-05-20T07:43:09.832Z,100468.64
2019-05-20T07:45:39.823Z,100479.27
2019-05-20T07:48:21.534Z,100473.12
2019-05-20T07:50:58.489Z,100474.43
2019-05-20T07:53:35.655Z,100471.91
2019-05-20T07:56:12.700Z,100476.15
2019-05-20T07:58:47.684Z,100473.50
2019-05-20T08:01:19.740Z,100468.06
2019-05-20T08:03:51.783Z,100478.67
2019-05-20T08:06:23.548Z,100479.81
2019-05-20T08:08:55.916Z,100489.55
2019-05-20T08:11:26.823Z,100484.16
2019-05-20T08:14:03.763Z,100489.08
2019-05-20T08:16:38.327Z,100481.23
2019-05-20T08:19:11.046Z,100484.19
2019-05-20T08:21:45.084Z,100490.84
2019-05-20T08:24:16.263Z,100494.53
2019-05-20T08:26:56.969Z,100495.88
2019-05-20T08:32:18.124Z,100501.73
2019-05-20T08:34:48.916Z,100499.64
2019-05-20T08:37:21.618Z,100496.35
2019-05-20T08:39:51.635Z,100493.16
2019-05-20T08:42:22.499Z,100492.45
2019-05-20T08:44:54.730Z,100490.75
2019-05-20T08:47:28.627Z,100496.73
2019-05-20T08:49:59.582Z,100488.72
2019-05-20T08:52:29.324Z,100488.61
2019-05-20T08:55:08.064Z,100493.82
2019-05-20T08:57:41.534Z,100489.22
2019-05-20T09:00:22.993Z,100481.39
2019-05-20T09:02:48.883Z,100482.72
2019-05-20T09:05:20.704Z,100482.48
2019-05-20T09:08:02.130Z,100485.28
2019-05-20T09:10:23.377Z,100488.42
2019-05-20T09:12:53.220Z,100484.84
2019-05-20T09:15:22.426Z,100480.92
2019-05-20T09:17:58.998Z,100484.98
2019-05-20T09:20:28.817Z,100488.73
2019-05-20T09:23:02.371Z,100485.24
2019-05-20T09:25:31.674Z,100489.48
2019-05-20T09:28:04.395Z,100496.67
2019-05-20T09:30:39.265Z,100494.59
2019-05-20T09:33:08.929Z,100499.16
2019-05-20T09:35:46.046Z,100498.30
2019-05-20T09:38:21.537Z,100498.30
2019-05-20T09:40:51.954Z,100501.02
2019-05-20T09:43:21.500Z,100498.26
2019-05-20T09:46:06.359Z,100499.81
2019-05-20T09:48:31.938Z,100495.47
2019-05-20T09:51:04.669Z,100486.92
2019-05-20T09:53:34.189Z,100485.99
2019-05-20T09:56:03.437Z,100499.25
2019-05-20T09:58:33.096Z,100493.33
2019-05-20T10:01:02.900Z,100495.81
2019-05-20T10:03:32.689Z,100496.90
2019-05-20T10:06:01.896Z,100499.39
2019-05-20T10:08:38.880Z,100502.11
2019-05-20T10:11:01.470Z,100501.80
2019-05-20T10:13:35.462Z,100496.38
2019-05-20T10:16:06.102Z,100497.81
2019-05-20T10:18:38.109Z,100493.86
2019-05-20T10:21:06.704Z,100497.75
2019-05-20T10:23:38.153Z,100499.78
2019-05-20T10:26:09.750Z,100491.02
2019-05-20T10:28:42.068Z,100493.08
2019-05-20T10:31:09.052Z,100491.25
2019-05-20T10:33:37.955Z,100494.80
2019-05-20T10:36:06.856Z,100491.24
2019-05-20T10:38:35.559Z,100491.73
2019-05-20T10:41:04.384Z,100486.30
2019-05-20T10:43:33.046Z,100498.03
2019-05-20T10:46:02.017Z,100498.63
2019-05-20T10:48:31.405Z,100491.28
2019-05-20T10:51:00.452Z,100497.47
2019-05-20T10:53:29.150Z,100496.91
2019-05-20T10:55:59.003Z,100494.80
2019-05-20T10:58:28.126Z,100496.54
2019-05-20T11:01:03.675Z,100497.50
2019-05-20T11:03:29.360Z,100493.48
2019-05-20T11:05:57.966Z,100491.63
2019-05-20T11:08:29.812Z,100490.28
2019-05-20T11:13:52.540Z,100492.77
2019-05-20T11:16:22.411Z,100480.30
2019-05-20T11:18:50.954Z,100488.73
2019-05-20T11:21:20.184Z,100494.20
2019-05-20T11:23:49.637Z,100489.81
2019-05-20T11:26:19.856Z,100490.88
2019-05-20T11:28:49.237Z,100495.55
2019-05-20T11:31:18.748Z,100489.58
2019-05-20T11:33:48.445Z,100492.62
2019-05-20T11:36:20.837Z,100489.09
2019-05-20T11:38:50.041Z,100480.66
2019-05-20T11:41:19.087Z,100477.95
2019-05-20T11:43:48.924Z,100473.33
2019-05-20T11:46:19.422Z,100468.98
2019-05-20T11:48:48.925Z,100479.58
2019-05-20T11:51:19.212Z,100473.59
2019-05-20T11:53:48.758Z,100478.50
2019-05-20T11:56:19.427Z,100493.20
2019-05-20T11:58:49.799Z,100488.30
2019-05-20T12:01:21.409Z,100487.75
2019-05-20T12:03:51.030Z,100497.56
2019-05-20T12:06:20.138Z,100495.64
2019-05-20T12:08:49.546Z,100488.30
2019-05-20T12:11:18.558Z,100494.83
2019-05-20T12:13:47.902Z,100493.20
2019-05-20T12:16:18.567Z,100496.73
2019-05-20T12:18:47.558Z,100504.92
2019-05-20T12:21:22.589Z,100501.36
2019-05-20T12:23:53.135Z,100500.81
2019-05-20T12:26:22.967Z,100500.27
2019-05-20T12:28:54.543Z,100496.98
2019-05-20T12:31:25.738Z,100499.44
2019-05-20T12:33:56.398Z,100497.81
2019-05-20T12:36:26.184Z,100498.63
2019-05-20T12:38:57.473Z,100492.88
2019-05-20T12:41:26.641Z,100496.95
2019-05-20T12:44:10.875Z,100484.37
2019-05-20T12:46:28.998Z,100487.84
2019-05-20T12:49:02.665Z,100481.05
2019-05-20T12:51:33.406Z,100477.19
2019-05-20T12:54:05.368Z,100479.36
2019-05-20T12:56:35.949Z,100479.88
2019-05-20T12:59:06.096Z,100476.56
2019-05-20T13:01:36.582Z,100486.81
2019-05-20T13:04:05.674Z,100477.95
2019-05-20T13:06:34.866Z,100470.19
2019-05-20T13:09:05.592Z,100467.23
2019-05-20T13:11:34.601Z,100463.02
2019-05-20T13:14:03.678Z,100464.83
2019-05-20T13:16:32.478Z,100467.45
2019-05-20T13:19:01.104Z,100456.86
2019-05-20T13:21:31.779Z,100455.06
2019-05-20T13:24:00.621Z,100453.17
2019-05-20T13:26:29.246Z,100456.11
2019-05-20T13:29:00.032Z,100448.15
2019-05-20T13:31:28.859Z,100442.69
2019-05-20T13:33:57.647Z,100443.55
2019-05-20T13:36:26.856Z,100434.86
2019-05-20T13:38:55.728Z,100435.38
2019-05-20T13:41:24.283Z,100440.67
2019-05-20T13:43:53.136Z,100432.05
2019-05-20T13:46:21.668Z,100431.61
2019-05-20T13:48:50.267Z,100431.19
2019-05-20T13:51:21.452Z,100418.31
2019-05-20T13:53:50.201Z,100410.70
2019-05-20T13:56:18.671Z,100411.37
2019-05-20T13:58:47.120Z,100410.00
2019-05-20T14:01:15.565Z,100411.09
2019-05-20T14:03:44.066Z,100402.11
2019-05-20T14:06:12.595Z,100402.13
2019-05-20T14:08:42.553Z,100405.88
2019-05-20T14:11:10.979Z,100399.64
2019-05-20T14:13:39.443Z,100397.58
2019-05-20T14:16:07.877Z,100398.48
2019-05-20T14:18:40.567Z,100390.77
2019-05-20T14:21:09.415Z,100401.45
2019-05-20T14:23:43.508Z,100395.02
2019-05-20T14:26:12.563Z,100383.40
2019-05-20T14:28:42.528Z,100381.62
2019-05-20T14:31:15.663Z,100384.05
2019-05-20T14:33:50.203Z,100383.80
2019-05-20T14:36:38.412Z,100388.23
2019-05-20T14:38:52.159Z,100376.59
2019-05-20T14:41:27.421Z,100377.96
2019-05-20T14:43:56.346Z,100369.61
2019-05-20T14:46:25.332Z,100350.74
2019-05-20T14:48:56.254Z,100360.02
2019-05-20T14:51:25.268Z,100361.02
2019-05-20T14:53:55.859Z,100352.23
2019-05-20T14:56:27.798Z,100352.73
2019-05-20T14:58:56.969Z,100353.47
2019-05-20T15:01:26.547Z,100351.02
2019-05-20T15:03:55.235Z,100356.30
2019-05-20T15:06:26.632Z,100357.06
2019-05-20T15:08:55.206Z,100358.79
2019-05-20T15:11:37.666Z,100367.28
2019-05-20T15:14:00.332Z,100369.37
2019-05-20T15:16:29.138Z,100364.25
2019-05-20T15:18:57.801Z,100375.05
2019-05-20T15:21:29.479Z,100366.45
2019-05-20T15:23:57.132Z,100369.30
2019-05-20T15:26:25.668Z,100366.50
2019-05-20T15:28:54.166Z,100368.67
2019-05-20T15:31:22.886Z,100365.61
2019-05-20T15:33:51.330Z,100364.27
2019-05-20T15:36:19.806Z,100367.03
2019-05-20T15:38:48.266Z,100358.34
2019-05-20T15:41:16.681Z,100364.40
2019-05-20T15:43:48.640Z,100360.47
2019-05-20T15:46:17.153Z,100359.97
2019-05-20T15:48:45.606Z,100360.94
2019-05-20T15:51:14.190Z,100353.98
2019-05-20T15:53:42.940Z,100358.45
2019-05-20T15:56:11.361Z,100354.92
2019-05-20T15:58:39.847Z,100339.80
2019-05-20T16:01:08.311Z,100347.97
2019-05-20T16:03:37.029Z,100348.00
2019-05-20T16:06:08.596Z,100345.34
2019-05-20T16:08:37.178Z,100347.37
2019-05-20T16:11:07.069Z,100344.77
2019-05-20T16:13:35.775Z,100349.40
2019-05-20T16:16:06.511Z,100352.03
2019-05-20T16:18:36.802Z,100347.88
2019-05-20T16:21:05.322Z,100355.29
2019-05-20T16:23:33.819Z,100356.03
2019-05-20T16:26:02.469Z,100355.23
2019-05-20T16:28:31.000Z,100359.69
2019-05-20T16:31:02.813Z,100362.56
2019-05-20T16:33:31.804Z,100353.23
2019-05-20T16:36:01.019Z,100357.55
2019-05-20T16:38:30.222Z,100362.30
2019-05-20T16:41:00.409Z,100352.10
2019-05-20T16:43:30.055Z,100352.27
2019-05-20T16:45:59.522Z,100349.09
2019-05-20T16:48:28.617Z,100350.12
2019-05-20T16:50:59.722Z,100351.63
2019-05-20T16:53:30.992Z,100345.95
2019-05-20T16:56:06.416Z,100352.23
2019-05-20T16:58:44.698Z,100350.34
2019-05-20T17:01:16.454Z,100354.70
2019-05-20T17:03:48.500Z,100344.05
2019-05-20T17:06:19.679Z,100343.97
2019-05-20T17:08:51.381Z,100348.85
2019-05-20T17:11:19.863Z,100347.75
2019-05-20T17:13:48.936Z,100342.81
2019-05-20T17:16:20.675Z,100343.30
2019-05-20T17:18:49.612Z,100350.33
2019-05-20T17:21:18.792Z,100351.96
2019-05-20T17:23:49.078Z,100348.92
2019-05-20T17:26:18.258Z,100340.16
2019-05-20T17:28:47.309Z,100350.86
2019-05-20T17:31:18.782Z,100353.11
2019-05-20T17:33:51.155Z,100360.88
2019-05-20T17:36:21.475Z,100361.05
2019-05-20T17:38:50.408Z,100363.34
2019-05-20T17:41:19.377Z,100366.48
2019-05-20T17:43:48.535Z,100379.95
2019-05-20T17:46:17.606Z,100371.59
2019-05-20T17:48:49.682Z,100373.88
2019-05-20T17:51:18.882Z,100366.61
2019-05-20T17:53:52.618Z,100369.42
2019-05-20T17:56:24.642Z,100368.95
2019-05-20T17:58:57.161Z,100374.98
2019-05-20T18:01:31.551Z,100362.24
2019-05-20T18:04:10.287Z,100370.41
2019-05-20T18:06:39.443Z,100370.69
2019-05-20T18:09:12.884Z,100373.69
2019-05-20T18:11:46.147Z,100373.95
2019-05-20T18:14:15.300Z,100372.59
2019-05-20T18:16:44.818Z,100376.13
2019-05-20T18:19:15.515Z,100375.90
2019-05-20T18:21:44.890Z,100379.17
2019-05-20T18:24:14.231Z,100375.66
2019-05-20T18:26:42.926Z,100376.75
2019-05-20T18:29:11.958Z,100371.05
2019-05-20T18:31:41.051Z,100373.48
2019-05-20T18:34:10.172Z,100383.28
2019-05-20T18:36:39.227Z,100381.38
2019-05-20T18:39:08.535Z,100385.48
2019-05-20T18:41:38.984Z,100402.30
2019-05-20T18:44:07.968Z,100411.80
2019-05-20T18:46:37.212Z,100409.61
2019-05-20T18:49:05.848Z,100411.50
2019-05-20T18:51:34.873Z,100405.50
2019-05-20T18:54:04.746Z,100413.09
2019-05-20T18:56:34.076Z,100417.17
2019-05-20T18:59:05.137Z,100414.69
2019-05-20T19:01:50.567Z,100409.80
2019-05-20T19:04:07.535Z,100411.13
2019-05-20T19:06:37.012Z,100406.98
2019-05-20T19:09:08.758Z,100409.42
2019-05-20T19:11:36.655Z,100410.76
2019-05-20T19:14:08.317Z,100410.17
2019-05-20T19:16:38.036Z,100399.81
2019-05-20T19:19:09.804Z,100401.42
2019-05-20T19:21:41.422Z,100391.89
2019-05-20T19:24:12.250Z,100398.65
2019-05-20T19:26:44.270Z,100395.63
2019-05-20T19:29:13.411Z,100406.16
2019-05-20T19:31:42.848Z,100405.33
2019-05-20T19:34:19.249Z,100405.84
2019-05-20T19:36:48.327Z,100404.17
2019-05-20T19:39:17.133Z,100405.46
2019-05-20T19:41:46.749Z,100399.20
2019-05-20T19:44:15.384Z,100400.55
2019-05-20T19:46:45.388Z,100395.64
2019-05-20T19:49:13.854Z,100397.80
2019-05-20T19:51:42.456Z,100395.84
2019-05-20T19:54:10.988Z,100407.48
2019-05-20T19:56:39.615Z,100399.62
2019-05-20T19:59:08.485Z,100394.71
2019-05-20T20:01:37.257Z,100394.39
2019-05-20T20:04:06.116Z,100393.27
2019-05-20T20:06:36.330Z,100392.14
2019-05-20T20:09:09.217Z,100390.22
2019-05-20T20:11:38.019Z,100388.55
2019-05-20T20:14:06.794Z,100393.40
2019-05-20T20:16:38.272Z,100395.82
2019-05-20T20:19:06.808Z,100400.92
2019-05-20T20:21:35.255Z,100397.92
2019-05-20T20:24:03.668Z,100397.31
2019-05-20T20:26:32.462Z,100403.00
2019-05-20T20:29:01.051Z,100407.58
2019-05-20T20:31:29.780Z,100408.09
2019-05-20T20:33:58.474Z,100415.37
2019-05-20T20:36:26.904Z,100410.42
2019-05-20T20:38:56.115Z,100418.82
2019-05-20T20:41:24.561Z,100406.34
2019-05-20T20:43:53.026Z,100397.36
2019-05-20T20:46:21.462Z,100389.75
2019-05-20T20:48:49.937Z,100385.12
2019-05-20T20:51:18.895Z,100383.98
2019-05-20T20:53:49.726Z,100385.85
2019-05-20T20:56:25.316Z,100387.70
2019-05-20T20:58:48.354Z,100374.95
2019-05-20T21:01:16.821Z,100380.59
2019-05-20T21:03:45.496Z,100385.22
2019-05-20T21:06:13.903Z,100388.16
2019-05-20T21:08:42.645Z,100385.16
2019-05-20T21:11:11.188Z,100391.38
2019-05-20T21:13:39.609Z,100397.05
2019-05-20T21:16:08.019Z,100403.53
2019-05-20T21:18:36.607Z,100403.81
2019-05-20T21:21:05.038Z,100403.76
2019-05-20T21:23:33.459Z,100403.23
2019-05-20T21:26:04.960Z,100402.41
2019-05-20T21:28:33.758Z,100399.97
2019-05-20T21:31:02.236Z,100406.18
2019-05-20T21:33:30.772Z,100407.02
2019-05-20T21:35:59.212Z,100416.48
2019-05-20T21:38:27.688Z,100408.32
2019-05-20T21:40:56.125Z,100403.45
2019-05-20T21:43:24.585Z,100403.17
2019-05-20T21:45:53.061Z,100399.90
2019-05-20T21:48:21.831Z,100399.33
2019-05-20T21:50:50.888Z,100403.63
2019-05-20T21:53:19.361Z,100399.03
2019-05-20T21:55:47.909Z,100394.69
2019-05-20T21:58:16.337Z,100390.34
2019-05-20T22:00:49.832Z,100389.80
2019-05-20T22:03:24.443Z,100387.88
2019-05-20T22:05:48.806Z,100385.95
2019-05-20T22:08:17.301Z,100381.59
2019-05-20T22:10:45.762Z,100380.19
2019-05-20T22:13:14.705Z,100386.10
2019-05-20T22:15:43.138Z,100379.30
2019-05-20T22:18:11.708Z,100379.23
2019-05-20T22:20:40.151Z,100371.61
2019-05-20T22:23:16.121Z,100368.81
2019-05-20T22:25:46.454Z,100359.53
2019-05-20T22:28:14.935Z,100354.29
2019-05-20T22:30:43.396Z,100360.48
2019-05-20T22:33:12.088Z,100362.36
2019-05-20T22:35:40.547Z,100346.86
2019-05-20T22:38:09.157Z,100344.94
2019-05-20T22:40:37.812Z,100349.49
2019-05-20T22:43:06.236Z,100346.48
2019-05-20T22:45:34.864Z,100346.17
2019-05-20T22:48:03.303Z,100355.07
2019-05-20T22:50:33.306Z,100353.38
2019-05-20T22:53:03.999Z,100346.05
2019-05-20T22:55:32.888Z,100340.06
2019-05-20T22:58:01.409Z,100336.51
2019-05-20T23:00:29.941Z,100335.16
2019-05-20T23:02:58.369Z,100328.92
2019-05-20T23:05:27.020Z,100331.34
2019-05-20T23:07:55.721Z,100332.41
2019-05-20T23:10:35.861Z,100335.89
2019-05-20T23:13:04.349Z,100341.30
2019-05-20T23:15:35.634Z,100333.70
2019-05-20T23:18:04.907Z,100336.41
2019-05-20T23:20:33.372Z,100342.59
2019-05-20T23:23:07.745Z,100336.30
2019-05-20T23:25:36.238Z,100345.97
2019-05-20T23:28:07.589Z,100333.44
2019-05-20T23:30:37.183Z,100347.73
2019-05-20T23:33:07.285Z,100337.12
2019-05-20T23:35:35.998Z,100341.98
2019-05-20T23:38:05.010Z,100337.08
2019-05-20T23:40:33.728Z,100332.96
2019-05-20T23:43:02.230Z,100335.61
2019-05-20T23:45:36.535Z,100330.41
2019-05-20T23:48:05.724Z,100333.59
2019-05-20T23:50:34.444Z,100331.64
2019-05-20T23:53:03.013Z,100330.72
2019-05-20T23:55:31.556Z,100329.56
2019-05-20T23:58:00.171Z,100326.84
